Time,TemperatureF,DewpointF,PressureIn,WindDirection,WindDirectionDegrees,WindSpeedMPH,WindSpeedGustMPH,Humidity,HourlyPrecipIn,Conditions,Clouds,dailyrainin,SoftwareType,DateUTC
2013-09-03 00:01:00,73.0,65.8,28.94,South,181,0.0,0.0,78,0.00,,BKN,0.00,VWS V13.01,2013-09-03 04:01:00,
2013-09-03 00:06:00,72.9,65.6,28.94,South,181,0.0,0.0,78,0.00,,BKN,0.00,VWS V13.01,2013-09-03 04:06:00,
2013-09-03 00:11:00,72.9,65.6,28.94,South,181,0.0,0.0,78,0.00,,BKN,0.00,VWS V13.01,2013-09-03 04:11:00,
2013-09-03 00:16:00,72.9,65.6,28.94,South,181,0.0,0.0,78,0.00,,BKN,0.00,VWS V13.01,2013-09-03 04:16:00,
2013-09-03 00:21:00,72.7,65.4,28.94,South,181,0.0,0.0,78,0.00,,BKN,0.00,VWS V13.01,2013-09-03 04:21:00,
2013-09-03 00:26:00,72.5,65.3,28.94,South,181,0.0,0.0,78,0.00,,BKN,0.00,VWS V13.01,2013-09-03 04:26:00,
2013-09-03 00:31:00,72.5,64.9,28.94,South,181,0.0,0.0,77,0.00,,BKN,0.00,VWS V13.01,2013-09-03 04:31:00,
2013-09-03 00:36:00,72.9,61.3,28.94,South,181,0.0,0.0,67,0.00,,BKN,0.00,VWS V13.01,2013-09-03 04:36:00,
2013-09-03 00:41:00,73.4,58.7,28.97,South,181,0.0,0.0,60,0.00,,BKN,0.00,VWS V13.01,2013-09-03 04:41:00,
2013-09-03 00:46:00,73.6,57.9,28.97,South,181,0.0,0.0,58,0.00,,BKN,0.00,VWS V13.01,2013-09-03 04:46:00,
2013-09-03 00:51:00,73.6,56.9,28.97,South,181,0.0,0.0,56,0.00,,BKN,0.00,VWS V13.01,2013-09-03 04:51:00,
2013-09-03 00:56:00,73.6,56.4,28.94,South,181,0.0,0.0,55,0.00,,BKN,0.00,VWS V13.01,2013-09-03 04:56:00,
2013-09-03 01:01:00,73.6,54.9,28.94,South,181,0.0,0.0,52,0.00,,BKN,0.00,VWS V13.01,2013-09-03 05:01:00,
2013-09-03 01:06:00,73.6,54.9,28.94,South,181,0.0,0.0,52,0.00,,BKN,0.00,VWS V13.01,2013-09-03 05:06:00,
2013-09-03 01:11:00,73.6,54.9,28.97,South,181,0.0,0.0,52,0.00,,BKN,0.00,VWS V13.01,2013-09-03 05:11:00,
2013-09-03 01:16:00,73.6,53.8,28.97,South,181,0.0,0.0,50,0.00,,BKN,0.00,VWS V13.01,2013-09-03 05:16:00,
2013-09-03 01:21:00,73.8,54.0,28.97,South,181,0.0,0.0,50,0.00,,BKN,0.00,VWS V13.01,2013-09-03 05:21:00,
2013-09-03 01:26:00,73.6,53.8,28.97,South,181,0.0,0.0,50,0.00,,BKN,0.00,VWS V13.01,2013-09-03 05:26:00,
2013-09-03 01:31:00,73.4,54.2,28.97,South,181,0.0,0.0,51,0.00,,BKN,0.00,VWS V13.01,2013-09-03 05:31:00,
2013-09-03 01:36:00,73.2,54.0,28.97,South,181,0.0,0.0,51,0.00,,BKN,0.00,VWS V13.01,2013-09-03 05:36:00,
2013-09-03 01:41:00,73.2,54.6,28.97,South,181,0.0,0.0,52,0.00,,BKN,0.00,VWS V13.01,2013-09-03 05:41:00,
2013-09-03 01:46:00,73.0,54.9,28.97,South,181,0.0,0.0,53,0.00,,BKN,0.00,VWS V13.01,2013-09-03 05:46:00,
2013-09-03 01:50:00,73.0,55.4,28.97,South,181,0.0,0.0,54,0.00,,BKN,0.00,VWS V13.01,2013-09-03 05:50:00,
2013-09-03 01:55:00,73.0,55.9,28.97,South,181,0.0,0.0,55,0.00,,BKN,0.00,VWS V13.01,2013-09-03 05:55:00,
2013-09-03 02:00:00,73.0,55.9,28.97,South,181,0.0,0.0,55,0.00,,BKN,0.00,VWS V13.01,2013-09-03 06:00:00,
2013-09-03 02:05:00,73.0,55.9,28.97,South,181,0.0,0.0,55,0.00,,BKN,0.00,VWS V13.01,2013-09-03 06:05:00,
2013-09-03 02:10:00,73.0,55.9,28.94,South,181,0.0,0.0,55,0.00,,BKN,0.00,VWS V13.01,2013-09-03 06:10:00,
2013-09-03 02:15:00,72.7,55.6,28.94,South,181,0.0,0.0,55,0.00,,BKN,0.00,VWS V13.01,2013-09-03 06:15:00,
2013-09-03 02:20:00,72.5,55.9,28.94,South,181,0.0,0.0,56,0.00,,BKN,0.00,VWS V13.01,2013-09-03 06:20:00,
2013-09-03 02:25:00,72.1,56.1,28.97,South,181,0.0,0.0,57,0.00,,BKN,0.00,VWS V13.01,2013-09-03 06:25:00,
2013-09-03 02:30:00,71.8,55.8,28.97,South,181,0.0,0.0,57,0.00,,BKN,0.00,VWS V13.01,2013-09-03 06:30:00,
2013-09-03 02:35:00,71.2,55.2,28.97,South,181,0.0,0.0,57,0.00,,BKN,0.00,VWS V13.01,2013-09-03 06:35:00,
2013-09-03 02:40:00,70.9,55.4,28.97,South,181,0.0,0.0,58,0.00,,BKN,0.00,VWS V13.01,2013-09-03 06:40:00,
2013-09-03 02:45:00,70.7,55.7,28.97,South,181,0.0,0.0,59,0.00,,BKN,0.00,VWS V13.01,2013-09-03 06:45:00,
2013-09-03 02:50:00,70.5,56.0,28.97,South,181,0.0,0.0,60,0.00,,BKN,0.00,VWS V13.01,2013-09-03 06:50:00,
2013-09-03 02:55:00,70.5,56.4,28.94,South,181,0.0,0.0,61,0.00,,BKN,0.00,VWS V13.01,2013-09-03 06:55:00,
2013-09-03 03:00:00,70.9,57.2,28.94,South,181,0.0,0.0,62,0.00,,BKN,0.00,VWS V13.01,2013-09-03 07:00:00,
2013-09-03 03:05:00,71.1,57.4,28.94,South,181,0.0,0.0,62,0.00,,BKN,0.00,VWS V13.01,2013-09-03 07:05:00,
2013-09-03 03:10:00,71.1,57.4,28.94,South,181,0.0,0.0,62,0.00,,BKN,0.00,VWS V13.01,2013-09-03 07:10:00,
2013-09-03 03:15:00,70.7,57.1,28.94,South,181,0.0,0.0,62,0.00,,BKN,0.00,VWS V13.01,2013-09-03 07:15:00,
2013-09-03 03:20:00,70.5,56.9,28.94,South,181,0.0,0.0,62,0.00,,BKN,0.00,VWS V13.01,2013-09-03 07:20:00,
2013-09-03 03:25:00,70.3,57.2,28.94,South,181,0.0,0.0,63,0.00,,BKN,0.00,VWS V13.01,2013-09-03 07:25:00,
2013-09-03 03:30:00,70.0,56.8,28.94,South,181,0.0,0.0,63,0.00,,BKN,0.00,VWS V13.01,2013-09-03 07:30:00,
2013-09-03 03:35:00,70.0,56.8,28.94,South,181,0.0,0.0,63,0.00,,BKN,0.00,VWS V13.01,2013-09-03 07:35:00,
2013-09-03 03:40:00,69.8,57.1,28.94,South,181,0.0,0.0,64,0.00,,BKN,0.00,VWS V13.01,2013-09-03 07:40:00,
2013-09-03 03:45:00,69.8,57.1,28.94,South,181,0.0,0.0,64,0.00,,BKN,0.00,VWS V13.01,2013-09-03 07:45:00,
2013-09-03 03:50:00,69.6,57.3,28.94,South,181,0.0,0.0,65,0.00,,BKN,0.00,VWS V13.01,2013-09-03 07:50:00,
2013-09-03 03:55:00,69.3,57.4,28.97,South,181,0.0,0.0,66,0.00,,BKN,0.00,VWS V13.01,2013-09-03 07:55:00,
2013-09-03 04:00:00,69.4,58.0,28.97,South,181,0.0,0.0,67,0.00,,BKN,0.00,VWS V13.01,2013-09-03 08:00:00,
2013-09-03 04:05:00,70.3,59.3,28.97,South,181,0.0,0.0,68,0.00,,BKN,0.00,VWS V13.01,2013-09-03 08:05:00,
2013-09-03 04:10:00,70.9,59.0,28.97,South,181,0.0,0.0,66,0.00,,BKN,0.00,VWS V13.01,2013-09-03 08:10:00,
2013-09-03 04:15:00,71.1,58.7,28.97,South,181,0.0,0.0,65,0.00,,BKN,0.00,VWS V13.01,2013-09-03 08:15:00,
2013-09-03 04:20:00,71.1,58.7,28.97,South,181,0.0,0.0,65,0.00,,BKN,0.00,VWS V13.01,2013-09-03 08:20:00,
2013-09-03 04:25:00,70.9,58.1,28.97,South,181,0.0,0.0,64,0.00,,BKN,0.00,VWS V13.01,2013-09-03 08:25:00,
2013-09-03 04:30:00,70.7,57.9,28.97,South,181,0.0,0.0,64,0.00,,BKN,0.00,VWS V13.01,2013-09-03 08:30:00,
2013-09-03 04:35:00,70.5,57.8,28.97,South,181,0.0,0.0,64,0.00,,BKN,0.00,VWS V13.01,2013-09-03 08:35:00,
2013-09-03 04:40:00,70.3,57.6,28.97,South,181,0.0,0.0,64,0.00,,BKN,0.00,VWS V13.01,2013-09-03 08:40:00,
2013-09-03 04:45:00,70.2,57.4,28.97,South,181,0.0,0.0,64,0.00,,BKN,0.00,VWS V13.01,2013-09-03 08:45:00,
2013-09-03 04:50:00,70.2,57.9,28.97,South,181,0.0,0.0,65,0.00,,BKN,0.00,VWS V13.01,2013-09-03 08:50:00,
2013-09-03 04:55:00,70.2,57.9,28.97,South,181,0.0,0.0,65,0.00,,BKN,0.00,VWS V13.01,2013-09-03 08:55:00,
2013-09-03 05:00:00,70.2,57.9,28.97,South,181,0.0,0.0,65,0.00,,BKN,0.00,VWS V13.01,2013-09-03 09:00:00,
2013-09-03 05:05:00,70.2,57.9,28.97,South,181,0.0,0.0,65,0.00,,BKN,0.00,VWS V13.01,2013-09-03 09:05:00,
2013-09-03 05:10:00,70.0,57.7,28.97,South,181,0.0,0.0,65,0.00,,BKN,0.00,VWS V13.01,2013-09-03 09:10:00,
2013-09-03 05:15:00,69.8,57.5,28.97,South,181,0.0,0.0,65,0.00,,BKN,0.00,VWS V13.01,2013-09-03 09:15:00,
2013-09-03 05:20:00,69.8,57.5,28.97,South,181,0.0,0.0,65,0.00,,BKN,0.00,VWS V13.01,2013-09-03 09:20:00,
2013-09-03 05:25:00,69.6,57.3,29.00,South,181,0.0,0.0,65,0.00,,BKN,0.00,VWS V13.01,2013-09-03 09:25:00,
2013-09-03 05:30:00,69.6,57.8,29.00,South,181,0.0,0.0,66,0.00,,BKN,0.00,VWS V13.01,2013-09-03 09:30:00,
2013-09-03 05:35:00,69.8,57.9,29.00,South,181,0.0,0.0,66,0.00,,BKN,0.00,VWS V13.01,2013-09-03 09:35:00,
2013-09-03 05:40:00,69.8,57.9,29.00,South,181,0.0,0.0,66,0.00,,BKN,0.00,VWS V13.01,2013-09-03 09:40:00,
2013-09-03 05:45:00,70.0,58.1,29.00,South,181,0.0,0.0,66,0.00,,BKN,0.00,VWS V13.01,2013-09-03 09:45:00,
2013-09-03 05:50:00,70.0,58.1,29.00,South,181,0.0,0.0,66,0.00,,BKN,0.00,VWS V13.01,2013-09-03 09:50:00,
2013-09-03 05:55:00,69.8,57.9,29.00,South,181,0.0,0.0,66,0.00,,BKN,0.00,VWS V13.01,2013-09-03 09:55:00,
2013-09-03 06:00:00,69.8,57.9,29.00,South,181,0.0,0.0,66,0.00,,BKN,0.00,VWS V13.01,2013-09-03 10:00:00,
2013-09-03 06:05:00,69.6,57.8,29.00,South,181,0.0,0.0,66,0.00,,BKN,0.00,VWS V13.01,2013-09-03 10:05:00,
2013-09-03 06:10:00,69.4,57.6,29.00,South,181,0.0,0.0,66,0.00,,BKN,0.00,VWS V13.01,2013-09-03 10:10:00,
2013-09-03 06:15:00,69.3,57.8,29.00,South,181,0.0,0.0,67,0.00,,BKN,0.00,VWS V13.01,2013-09-03 10:15:00,
2013-09-03 06:20:00,69.1,57.7,29.00,South,181,0.0,0.0,67,0.00,,BKN,0.00,VWS V13.01,2013-09-03 10:20:00,
2013-09-03 06:25:00,69.1,57.7,29.00,South,181,0.0,0.0,67,0.00,,BKN,0.00,VWS V13.01,2013-09-03 10:25:00,
2013-09-03 06:30:00,68.9,57.5,29.00,South,181,0.0,0.0,67,0.00,,BKN,0.00,VWS V13.01,2013-09-03 10:30:00,
2013-09-03 06:35:00,68.7,57.7,29.00,South,181,0.0,0.0,68,0.00,,BKN,0.00,VWS V13.01,2013-09-03 10:35:00,
2013-09-03 06:40:00,68.5,57.6,29.00,South,181,0.0,0.0,68,0.00,,BKN,0.00,VWS V13.01,2013-09-03 10:40:00,
2013-09-03 06:45:00,68.5,58.0,29.00,South,181,0.0,0.0,69,0.00,,BKN,0.00,VWS V13.01,2013-09-03 10:45:00,
2013-09-03 06:50:00,68.7,58.2,29.00,South,181,0.0,0.0,69,0.00,,BKN,0.00,VWS V13.01,2013-09-03 10:50:00,
2013-09-03 06:55:00,68.7,58.2,29.00,South,181,0.0,0.0,69,0.00,,BKN,0.00,VWS V13.01,2013-09-03 10:55:00,
2013-09-03 07:00:00,68.7,58.2,29.00,South,181,0.0,0.0,69,0.00,,BKN,0.00,VWS V13.01,2013-09-03 11:00:00,
2013-09-03 07:05:00,68.7,58.5,29.00,South,181,0.0,0.0,70,0.00,,BKN,0.00,VWS V13.01,2013-09-03 11:05:00,
2013-09-03 07:10:00,68.7,58.2,29.00,South,181,0.0,0.0,69,0.00,,BKN,0.00,VWS V13.01,2013-09-03 11:10:00,
2013-09-03 07:15:00,68.7,58.2,29.03,South,181,0.0,0.0,69,0.00,,BKN,0.00,VWS V13.01,2013-09-03 11:15:00,
2013-09-03 07:20:00,68.9,57.5,29.03,South,181,0.0,0.0,67,0.00,,BKN,0.00,VWS V13.01,2013-09-03 11:20:00,
2013-09-03 07:25:00,69.1,57.7,29.03,South,181,0.0,0.0,67,0.00,,BKN,0.00,VWS V13.01,2013-09-03 11:25:00,
2013-09-03 07:30:00,69.3,57.4,29.03,South,181,0.0,0.0,66,0.00,,BKN,0.00,VWS V13.01,2013-09-03 11:30:00,
2013-09-03 07:35:00,69.4,57.2,29.03,South,181,0.0,0.0,65,0.00,,BKN,0.00,VWS V13.01,2013-09-03 11:35:00,
2013-09-03 07:40:00,69.3,56.1,29.03,South,181,0.0,0.0,63,0.00,,BKN,0.00,VWS V13.01,2013-09-03 11:40:00,
2013-09-03 07:45:00,69.3,55.7,29.03,NW,319,0.0,0.0,62,0.00,,BKN,0.00,VWS V13.01,2013-09-03 11:45:00,
2013-09-03 07:50:00,69.1,55.5,29.03,NW,319,0.0,0.0,62,0.00,,BKN,0.00,VWS V13.01,2013-09-03 11:50:00,
2013-09-03 07:55:00,69.3,55.7,29.03,NW,319,0.0,0.0,62,0.00,,BKN,0.00,VWS V13.01,2013-09-03 11:55:00,
2013-09-03 08:00:00,69.6,56.0,29.03,NW,312,0.0,0.0,62,0.00,,BKN,0.00,VWS V13.01,2013-09-03 12:00:00,
2013-09-03 08:05:00,70.0,56.4,29.03,NW,326,0.0,3.1,62,0.00,,BKN,0.00,VWS V13.01,2013-09-03 12:05:00,
2013-09-03 08:10:00,70.3,56.7,29.03,NW,321,3.1,3.1,62,0.00,,BKN,0.00,VWS V13.01,2013-09-03 12:10:00,
2013-09-03 08:15:00,70.5,56.4,29.03,WNW,303,3.6,3.6,61,0.00,,BKN,0.00,VWS V13.01,2013-09-03 12:15:00,
2013-09-03 08:20:00,70.9,56.3,29.03,NW,316,0.0,2.7,60,0.00,,BKN,0.00,VWS V13.01,2013-09-03 12:20:00,
2013-09-03 08:25:00,71.6,56.5,29.03,WNW,301,0.0,3.1,59,0.00,,BKN,0.00,VWS V13.01,2013-09-03 12:25:00,
2013-09-03 08:30:00,71.8,54.3,29.03,WNW,286,4.9,4.9,54,0.00,,BKN,0.00,VWS V13.01,2013-09-03 12:30:00,
2013-09-03 08:35:00,71.6,54.1,29.03,NW,311,3.6,3.6,54,0.00,,BKN,0.00,VWS V13.01,2013-09-03 12:35:00,
2013-09-03 08:40:00,71.6,54.6,29.03,NW,316,4.0,5.4,55,0.00,,BKN,0.00,VWS V13.01,2013-09-03 12:40:00,
2013-09-03 08:45:00,72.0,54.4,29.03,NW,312,2.7,4.5,54,0.00,,BKN,0.00,VWS V13.01,2013-09-03 12:45:00,
2013-09-03 08:50:00,72.0,53.9,29.03,WNW,297,3.1,4.5,53,0.00,,BKN,0.00,VWS V13.01,2013-09-03 12:50:00,
2013-09-03 08:55:00,72.0,53.9,29.03,WNW,303,6.7,6.7,53,0.00,,BKN,0.00,VWS V13.01,2013-09-03 12:55:00,
2013-09-03 09:00:00,72.1,53.6,29.03,NW,314,5.4,5.4,52,0.00,,BKN,0.00,VWS V13.01,2013-09-03 13:00:00,
2013-09-03 09:05:00,72.5,52.8,29.03,WNW,301,0.0,3.6,50,0.00,,BKN,0.00,VWS V13.01,2013-09-03 13:05:00,
2013-09-03 09:10:00,72.5,52.8,29.03,NW,315,3.1,3.1,50,0.00,,BKN,0.00,VWS V13.01,2013-09-03 13:10:00,
2013-09-03 09:15:00,72.5,52.8,29.06,WNW,301,4.0,4.0,50,0.00,,BKN,0.00,VWS V13.01,2013-09-03 13:15:00,
2013-09-03 09:20:00,72.7,53.0,29.06,NW,309,0.0,0.0,50,0.00,,BKN,0.00,VWS V13.01,2013-09-03 13:20:00,
2013-09-03 09:25:00,73.0,51.6,29.06,NW,314,4.9,5.4,47,0.00,,BKN,0.00,VWS V13.01,2013-09-03 13:25:00,
2013-09-03 09:30:00,73.0,51.1,29.06,NNW,330,4.0,4.9,46,0.00,,BKN,0.00,VWS V13.01,2013-09-03 13:30:00,
2013-09-03 09:35:00,73.0,51.1,29.06,WNW,294,4.0,4.0,46,0.00,,BKN,0.00,VWS V13.01,2013-09-03 13:35:00,
2013-09-03 09:40:00,73.4,52.0,29.06,NNW,342,3.6,3.6,47,0.00,,BKN,0.00,VWS V13.01,2013-09-03 13:40:00,
2013-09-03 09:45:00,73.8,51.1,29.06,NW,304,3.1,3.1,45,0.00,,BKN,0.00,VWS V13.01,2013-09-03 13:45:00,
2013-09-03 09:50:00,74.3,50.4,29.06,WSW,246,3.1,3.1,43,0.00,,BKN,0.00,VWS V13.01,2013-09-03 13:50:00,
2013-09-03 09:55:00,74.5,49.3,29.06,WNW,286,3.6,3.6,41,0.00,,BKN,0.00,VWS V13.01,2013-09-03 13:55:00,
2013-09-03 10:00:00,74.3,49.8,29.06,WNW,284,3.1,4.5,42,0.00,,BKN,0.00,VWS V13.01,2013-09-03 14:00:00,
2013-09-03 10:05:00,74.7,49.4,29.06,WNW,298,4.9,7.8,41,0.00,,BKN,0.00,VWS V13.01,2013-09-03 14:05:00,
2013-09-03 10:09:00,74.5,49.3,29.06,WNW,299,4.0,5.8,41,0.00,,BKN,0.00,VWS V13.01,2013-09-03 14:09:00,
2013-09-03 10:14:00,74.5,49.9,29.06,NW,307,3.1,3.6,42,0.00,,BKN,0.00,VWS V13.01,2013-09-03 14:14:00,
2013-09-03 10:19:00,75.0,51.0,29.06,NW,307,2.7,3.1,43,0.00,,BKN,0.00,VWS V13.01,2013-09-03 14:19:00,
2013-09-03 10:24:00,75.2,51.2,29.06,NNW,340,2.7,4.0,43,0.00,,BKN,0.00,VWS V13.01,2013-09-03 14:24:00,
2013-09-03 10:29:00,75.2,50.6,29.06,NW,308,3.1,7.8,42,0.00,,BKN,0.00,VWS V13.01,2013-09-03 14:29:00,
2013-09-03 10:34:00,75.4,50.7,29.06,NW,312,4.5,5.4,42,0.00,,BKN,0.00,VWS V13.01,2013-09-03 14:34:00,
2013-09-03 10:39:00,75.6,50.9,29.06,NW,317,0.0,3.6,42,0.00,,BKN,0.00,VWS V13.01,2013-09-03 14:39:00,
2013-09-03 10:44:00,75.6,50.2,29.06,NNW,337,3.1,8.7,41,0.00,,BKN,0.00,VWS V13.01,2013-09-03 14:44:00,
2013-09-03 10:49:00,75.2,49.9,29.06,NW,322,4.9,5.4,41,0.00,,BKN,0.00,VWS V13.01,2013-09-03 14:49:00,
2013-09-03 10:54:00,75.0,49.8,29.06,WNW,288,3.6,7.8,41,0.00,,BKN,0.00,VWS V13.01,2013-09-03 14:54:00,
2013-09-03 10:59:00,75.0,49.8,29.06,WNW,289,5.4,6.9,41,0.00,,BKN,0.00,VWS V13.01,2013-09-03 14:59:00,
2013-09-03 11:04:00,75.4,50.1,29.06,ENE,71,3.1,4.5,41,0.00,,BKN,0.00,VWS V13.01,2013-09-03 15:04:00,
2013-09-03 11:09:00,76.1,50.7,29.06,North,356,0.0,4.0,41,0.00,,BKN,0.00,VWS V13.01,2013-09-03 15:09:00,
2013-09-03 11:14:00,76.6,49.8,29.06,WNW,293,3.1,5.8,39,0.00,,BKN,0.00,VWS V13.01,2013-09-03 15:14:00,
2013-09-03 11:19:00,76.8,50.7,29.06,WSW,258,3.1,6.3,40,0.00,,BKN,0.00,VWS V13.01,2013-09-03 15:19:00,
2013-09-03 11:24:00,76.8,50.0,29.06,NW,324,5.4,10.1,39,0.00,,BKN,0.00,VWS V13.01,2013-09-03 15:24:00,
2013-09-03 11:29:00,76.1,50.0,29.06,WNW,295,4.0,5.8,40,0.00,,BKN,0.00,VWS V13.01,2013-09-03 15:29:00,
2013-09-03 11:34:00,76.5,51.0,29.06,WNW,300,4.9,6.3,41,0.00,,BKN,0.00,VWS V13.01,2013-09-03 15:34:00,
2013-09-03 11:39:00,76.5,50.4,29.06,WNW,295,5.8,5.8,40,0.00,,BKN,0.00,VWS V13.01,2013-09-03 15:39:00,
2013-09-03 11:44:00,76.5,51.7,29.06,WNW,303,6.7,6.7,42,0.00,,BKN,0.00,VWS V13.01,2013-09-03 15:44:00,
2013-09-03 11:49:00,76.6,51.2,29.06,WNW,299,6.7,6.7,41,0.00,,BKN,0.00,VWS V13.01,2013-09-03 15:49:00,
2013-09-03 11:54:00,76.8,50.7,29.06,WNW,301,4.9,4.9,40,0.00,,BKN,0.00,VWS V13.01,2013-09-03 15:54:00,
2013-09-03 11:59:00,77.2,50.3,29.06,NW,314,6.3,6.9,39,0.00,,BKN,0.00,VWS V13.01,2013-09-03 15:59:00,
2013-09-03 12:04:00,77.4,50.5,29.06,WNW,299,5.8,5.8,39,0.00,,BKN,0.00,VWS V13.01,2013-09-03 16:04:00,
2013-09-03 12:09:00,77.4,50.5,29.06,NNW,330,5.8,6.3,39,0.00,,BKN,0.00,VWS V13.01,2013-09-03 16:09:00,
2013-09-03 12:14:00,77.5,51.3,29.06,NW,312,5.8,9.6,40,0.00,,BKN,0.00,VWS V13.01,2013-09-03 16:14:00,
2013-09-03 12:19:00,76.6,49.2,29.06,WSW,248,7.4,7.4,38,0.00,,BKN,0.00,VWS V13.01,2013-09-03 16:19:00,
2013-09-03 12:24:00,76.1,48.7,29.06,SW,232,4.0,11.2,38,0.00,,BKN,0.00,VWS V13.01,2013-09-03 16:24:00,
2013-09-03 12:29:00,76.5,50.4,29.06,WNW,288,4.9,4.9,40,0.00,,BKN,0.00,VWS V13.01,2013-09-03 16:29:00,
2013-09-03 12:34:00,77.2,50.3,29.06,NW,308,6.9,8.7,39,0.00,,BKN,0.00,VWS V13.01,2013-09-03 16:34:00,
2013-09-03 12:39:00,77.7,50.8,29.06,North,6,4.9,4.9,39,0.00,,BKN,0.00,VWS V13.01,2013-09-03 16:39:00,
2013-09-03 12:44:00,78.4,51.5,29.06,North,6,4.9,4.9,39,0.00,,BKN,0.00,VWS V13.01,2013-09-03 16:44:00,
2013-09-03 12:49:00,78.4,51.5,29.06,North,6,4.9,4.9,39,0.00,,BKN,0.00,VWS V13.01,2013-09-03 16:49:00,
2013-09-03 12:54:00,77.7,50.8,29.06,North,6,4.9,4.9,39,0.00,,BKN,0.00,VWS V13.01,2013-09-03 16:54:00,
2013-09-03 12:59:00,77.5,50.7,29.06,North,6,4.9,4.9,39,0.00,,BKN,0.00,VWS V13.01,2013-09-03 16:59:00,
2013-09-03 13:04:00,78.6,51.6,29.06,North,6,4.9,4.9,39,0.00,,BKN,0.00,VWS V13.01,2013-09-03 17:04:00,
2013-09-03 13:09:00,79.0,51.9,29.06,North,6,4.9,4.9,39,0.00,,BKN,0.00,VWS V13.01,2013-09-03 17:09:00,
2013-09-03 13:14:00,79.0,51.9,29.03,North,6,4.9,4.9,39,0.00,,BKN,0.00,VWS V13.01,2013-09-03 17:14:00,
2013-09-03 13:19:00,79.5,52.4,29.03,North,6,4.9,4.9,39,0.00,,BKN,0.00,VWS V13.01,2013-09-03 17:19:00,
2013-09-03 13:24:00,80.4,50.3,29.03,North,6,4.9,4.9,35,0.00,,BKN,0.00,VWS V13.01,2013-09-03 17:24:00,
2013-09-03 13:29:00,80.8,48.2,29.03,North,6,4.9,4.9,32,0.00,,BKN,0.00,VWS V13.01,2013-09-03 17:29:00,
2013-09-03 13:34:00,80.8,48.2,29.03,North,6,4.9,4.9,32,0.00,,BKN,0.00,VWS V13.01,2013-09-03 17:34:00,
2013-09-03 13:39:00,80.6,47.2,29.03,North,6,4.9,4.9,31,0.00,,BKN,0.00,VWS V13.01,2013-09-03 17:39:00,
2013-09-03 13:44:00,80.6,47.2,29.03,North,6,4.9,4.9,31,0.00,,BKN,0.00,VWS V13.01,2013-09-03 17:44:00,
2013-09-03 13:49:00,80.2,47.7,29.03,North,6,4.9,4.9,32,0.00,,BKN,0.00,VWS V13.01,2013-09-03 17:49:00,
2013-09-03 13:54:00,80.4,47.0,29.03,North,6,4.9,4.9,31,0.00,,BKN,0.00,VWS V13.01,2013-09-03 17:54:00,
2013-09-03 13:59:00,80.8,47.4,29.06,North,6,4.9,4.9,31,0.00,,BKN,0.00,VWS V13.01,2013-09-03 17:59:00,
2013-09-03 14:04:00,81.0,47.5,29.06,North,6,4.9,4.9,31,0.00,,BKN,0.00,VWS V13.01,2013-09-03 18:04:00,
2013-09-03 14:09:00,81.0,47.5,29.06,North,6,4.9,4.9,31,0.00,,BKN,0.00,VWS V13.01,2013-09-03 18:09:00,
2013-09-03 14:14:00,80.8,46.5,29.03,North,6,4.9,4.9,30,0.00,,BKN,0.00,VWS V13.01,2013-09-03 18:14:00,
2013-09-03 14:19:00,80.8,47.4,29.03,North,6,4.9,4.9,31,0.00,,BKN,0.00,VWS V13.01,2013-09-03 18:19:00,
2013-09-03 14:24:00,81.1,46.8,29.03,North,6,4.9,4.9,30,0.00,,BKN,0.00,VWS V13.01,2013-09-03 18:24:00,
2013-09-03 14:29:00,81.1,46.8,29.03,North,6,4.9,4.9,30,0.00,,BKN,0.00,VWS V13.01,2013-09-03 18:29:00,
2013-09-03 14:34:00,81.1,46.8,29.03,North,6,4.9,4.9,30,0.00,,BKN,0.00,VWS V13.01,2013-09-03 18:34:00,
2013-09-03 14:39:00,81.5,48.0,29.03,North,6,4.9,4.9,31,0.00,,BKN,0.00,VWS V13.01,2013-09-03 18:39:00,
2013-09-03 14:44:00,81.5,47.1,29.03,North,6,4.9,4.9,30,0.00,,BKN,0.00,VWS V13.01,2013-09-03 18:44:00,
2013-09-03 14:49:00,81.3,47.0,29.03,North,6,4.9,4.9,30,0.00,,BKN,0.00,VWS V13.01,2013-09-03 18:49:00,
2013-09-03 14:54:00,81.1,47.7,29.03,North,6,4.9,4.9,31,0.00,,BKN,0.00,VWS V13.01,2013-09-03 18:54:00,
2013-09-03 14:59:00,81.1,47.7,29.03,North,6,4.9,4.9,31,0.00,,BKN,0.00,VWS V13.01,2013-09-03 18:59:00,
2013-09-03 15:04:00,81.3,47.8,29.03,North,6,4.9,4.9,31,0.00,,BKN,0.00,VWS V13.01,2013-09-03 19:04:00,
2013-09-03 15:09:00,80.2,46.9,29.03,North,6,4.9,4.9,31,0.00,,BKN,0.00,VWS V13.01,2013-09-03 19:09:00,
2013-09-03 15:14:00,79.7,47.3,29.03,North,6,4.9,4.9,32,0.00,,BKN,0.00,VWS V13.01,2013-09-03 19:14:00,
2013-09-03 15:19:00,79.5,47.9,29.03,North,6,4.9,4.9,33,0.00,,BKN,0.00,VWS V13.01,2013-09-03 19:19:00,
2013-09-03 15:24:00,79.9,48.2,29.03,North,6,4.9,4.9,33,0.00,,BKN,0.00,VWS V13.01,2013-09-03 19:24:00,
2013-09-03 15:29:00,80.1,47.6,29.03,North,6,4.9,4.9,32,0.00,,BKN,0.00,VWS V13.01,2013-09-03 19:29:00,
2013-09-03 15:34:00,80.2,47.7,29.03,North,6,4.9,4.9,32,0.00,,BKN,0.00,VWS V13.01,2013-09-03 19:34:00,
2013-09-03 15:39:00,80.2,46.9,29.03,North,6,4.9,4.9,31,0.00,,BKN,0.00,VWS V13.01,2013-09-03 19:39:00,
2013-09-03 15:43:00,80.8,47.4,29.03,North,6,4.9,4.9,31,0.00,,BKN,0.00,VWS V13.01,2013-09-03 19:43:00,
2013-09-03 15:48:00,80.6,47.2,29.03,NNE,30,5.4,5.8,31,0.00,,BKN,0.00,VWS V13.01,2013-09-03 19:48:00,
2013-09-03 15:53:00,80.8,47.4,29.03,NW,307,5.8,9.2,31,0.00,,BKN,0.00,VWS V13.01,2013-09-03 19:53:00,
2013-09-03 15:58:00,80.8,47.4,29.03,NW,310,6.7,9.2,31,0.00,,BKN,0.00,VWS V13.01,2013-09-03 19:58:00,
2013-09-03 16:03:00,80.8,47.4,29.03,NNE,12,4.0,4.5,31,0.00,,BKN,0.00,VWS V13.01,2013-09-03 20:03:00,
2013-09-03 16:08:00,80.8,47.4,29.03,NW,319,7.4,7.4,31,0.00,,BKN,0.00,VWS V13.01,2013-09-03 20:08:00,
2013-09-03 16:13:00,80.6,47.2,29.03,NNW,345,5.4,5.8,31,0.00,,BKN,0.00,VWS V13.01,2013-09-03 20:13:00,
2013-09-03 16:18:00,80.8,47.4,29.03,North,9,4.0,8.3,31,0.00,,BKN,0.00,VWS V13.01,2013-09-03 20:18:00,
2013-09-03 16:23:00,80.4,46.2,29.03,WNW,296,9.2,11.2,30,0.00,,BKN,0.00,VWS V13.01,2013-09-03 20:23:00,
2013-09-03 16:28:00,80.2,46.0,29.03,WNW,291,5.4,12.1,30,0.00,,BKN,0.00,VWS V13.01,2013-09-03 20:28:00,
2013-09-03 16:33:00,80.2,46.9,29.03,WNW,301,11.6,11.6,31,0.00,,BKN,0.00,VWS V13.01,2013-09-03 20:33:00,
2013-09-03 16:38:00,80.1,45.9,29.03,NW,312,5.4,5.4,30,0.00,,BKN,0.00,VWS V13.01,2013-09-03 20:38:00,
2013-09-03 16:43:00,80.2,46.9,29.03,North,7,5.8,5.8,31,0.00,,BKN,0.00,VWS V13.01,2013-09-03 20:43:00,
2013-09-03 16:48:00,80.2,46.0,29.03,WNW,283,4.0,4.0,30,0.00,,BKN,0.00,VWS V13.01,2013-09-03 20:48:00,
2013-09-03 16:53:00,80.2,46.0,29.03,NW,309,3.1,6.7,30,0.00,,BKN,0.00,VWS V13.01,2013-09-03 20:53:00,
2013-09-03 16:58:00,80.1,45.9,29.03,NW,315,3.1,4.9,30,0.00,,BKN,0.00,VWS V13.01,2013-09-03 20:58:00,
2013-09-03 17:03:00,79.9,45.7,29.03,NW,316,4.0,9.2,30,0.00,,BKN,0.00,VWS V13.01,2013-09-03 21:03:00,
2013-09-03 17:08:00,79.9,45.7,29.03,WNW,298,8.3,8.7,30,0.00,,BKN,0.00,VWS V13.01,2013-09-03 21:08:00,
2013-09-03 17:13:00,79.7,45.6,29.03,NNW,346,5.4,8.7,30,0.00,,BKN,0.00,VWS V13.01,2013-09-03 21:13:00,
2013-09-03 17:18:00,79.5,45.4,29.03,NW,306,5.8,8.3,30,0.00,,BKN,0.00,VWS V13.01,2013-09-03 21:18:00,
2013-09-03 17:23:00,79.5,45.4,29.03,West,277,5.4,7.4,30,0.00,,BKN,0.00,VWS V13.01,2013-09-03 21:23:00,
2013-09-03 17:28:00,79.5,45.4,29.03,NW,313,6.3,6.7,30,0.00,,BKN,0.00,VWS V13.01,2013-09-03 21:28:00,
2013-09-03 17:33:00,79.3,45.2,29.03,NW,313,4.5,8.3,30,0.00,,BKN,0.00,VWS V13.01,2013-09-03 21:33:00,
2013-09-03 17:38:00,79.3,45.2,29.03,WNW,301,7.4,7.4,30,0.00,,BKN,0.00,VWS V13.01,2013-09-03 21:38:00,
2013-09-03 17:43:00,79.2,45.1,29.03,WNW,303,4.5,6.3,30,0.00,,BKN,0.00,VWS V13.01,2013-09-03 21:43:00,
2013-09-03 17:48:00,79.3,46.1,29.03,West,277,4.5,6.3,31,0.00,,BKN,0.00,VWS V13.01,2013-09-03 21:48:00,
2013-09-03 17:53:00,79.2,45.1,29.03,NNW,330,4.5,6.3,30,0.00,,BKN,0.00,VWS V13.01,2013-09-03 21:53:00,
2013-09-03 17:58:00,79.2,45.1,29.03,WNW,301,5.4,7.4,30,0.00,,BKN,0.00,VWS V13.01,2013-09-03 21:58:00,
2013-09-03 18:03:00,78.8,45.6,29.03,WNW,296,3.6,5.4,31,0.00,,BKN,0.00,VWS V13.01,2013-09-03 22:03:00,
2013-09-03 18:08:00,78.6,45.5,29.03,WNW,300,3.1,6.3,31,0.00,,BKN,0.00,VWS V13.01,2013-09-03 22:08:00,
2013-09-03 18:13:00,78.3,45.2,29.06,NW,306,4.0,4.5,31,0.00,,BKN,0.00,VWS V13.01,2013-09-03 22:13:00,
2013-09-03 18:18:00,78.3,45.2,29.06,WNW,300,7.4,8.7,31,0.00,,BKN,0.00,VWS V13.01,2013-09-03 22:18:00,
2013-09-03 18:23:00,77.9,45.7,29.06,NW,307,3.1,3.6,32,0.00,,BKN,0.00,VWS V13.01,2013-09-03 22:23:00,
2013-09-03 18:28:00,77.5,45.4,29.06,NW,319,2.7,4.9,32,0.00,,BKN,0.00,VWS V13.01,2013-09-03 22:28:00,
2013-09-03 18:33:00,77.4,45.2,29.06,NW,325,4.9,4.9,32,0.00,,BKN,0.00,VWS V13.01,2013-09-03 22:33:00,
2013-09-03 18:38:00,77.0,44.9,29.06,NW,308,3.1,5.4,32,0.00,,BKN,0.00,VWS V13.01,2013-09-03 22:38:00,
2013-09-03 18:43:00,76.8,44.8,29.06,WNW,300,6.9,6.9,32,0.00,,BKN,0.00,VWS V13.01,2013-09-03 22:43:00,
2013-09-03 18:48:00,76.6,45.4,29.06,NW,311,5.4,7.4,33,0.00,,BKN,0.00,VWS V13.01,2013-09-03 22:48:00,
2013-09-03 18:53:00,76.3,45.1,29.06,NW,313,3.1,4.0,33,0.00,,BKN,0.00,VWS V13.01,2013-09-03 22:53:00,
2013-09-03 18:58:00,76.1,44.9,29.06,WNW,294,3.1,4.0,33,0.00,,BKN,0.00,VWS V13.01,2013-09-03 22:58:00,
2013-09-03 19:03:00,75.7,44.6,29.06,North,0,0.0,2.7,33,0.00,,BKN,0.00,VWS V13.01,2013-09-03 23:03:00,
2013-09-03 19:08:00,75.6,44.5,29.06,WNW,288,3.6,3.6,33,0.00,,BKN,0.00,VWS V13.01,2013-09-03 23:08:00,
2013-09-03 19:13:00,75.2,44.9,29.09,NW,320,7.8,7.8,34,0.00,,BKN,0.00,VWS V13.01,2013-09-03 23:13:00,
2013-09-03 19:18:00,74.8,44.6,29.09,NW,321,4.0,6.7,34,0.00,,BKN,0.00,VWS V13.01,2013-09-03 23:18:00,
2013-09-03 19:23:00,74.7,44.5,29.09,NW,313,3.6,4.9,34,0.00,,BKN,0.00,VWS V13.01,2013-09-03 23:23:00,
2013-09-03 19:28:00,74.3,44.1,29.09,NW,309,3.6,3.6,34,0.00,,BKN,0.00,VWS V13.01,2013-09-03 23:28:00,
2013-09-03 19:33:00,73.9,44.6,29.09,WNW,300,0.0,0.0,35,0.00,,BKN,0.00,VWS V13.01,2013-09-03 23:33:00,
2013-09-03 19:38:00,73.6,45.0,29.09,WNW,300,3.1,3.1,36,0.00,,BKN,0.00,VWS V13.01,2013-09-03 23:38:00,
2013-09-03 19:43:00,73.2,44.7,29.09,WNW,300,0.0,0.0,36,0.00,,BKN,0.00,VWS V13.01,2013-09-03 23:43:00,
2013-09-03 19:48:00,72.7,44.2,29.09,WNW,287,0.0,0.0,36,0.00,,BKN,0.00,VWS V13.01,2013-09-03 23:48:00,
2013-09-03 19:53:00,72.1,44.5,29.09,WNW,287,0.0,0.0,37,0.00,,BKN,0.00,VWS V13.01,2013-09-03 23:53:00,
2013-09-03 19:58:00,71.6,44.7,29.09,WNW,287,0.0,0.0,38,0.00,,BKN,0.00,VWS V13.01,2013-09-03 23:58:00,
2013-09-03 20:03:00,71.2,44.4,29.09,WNW,287,0.0,0.0,38,0.00,,BKN,0.00,VWS V13.01,2013-09-04 00:03:00,
2013-09-03 20:08:00,71.1,44.9,29.09,WNW,287,0.0,0.0,39,0.00,,BKN,0.00,VWS V13.01,2013-09-04 00:08:00,
2013-09-03 20:13:00,70.9,44.7,29.09,WNW,287,0.0,0.0,39,0.00,,BKN,0.00,VWS V13.01,2013-09-04 00:13:00,
2013-09-03 20:18:00,70.5,45.1,29.09,WNW,287,0.0,0.0,40,0.00,,BKN,0.00,VWS V13.01,2013-09-04 00:18:00,
2013-09-03 20:23:00,70.2,44.7,29.09,WNW,287,0.0,0.0,40,0.00,,BKN,0.00,VWS V13.01,2013-09-04 00:23:00,
2013-09-03 20:28:00,70.0,45.2,29.12,WNW,287,0.0,0.0,41,0.00,,BKN,0.00,VWS V13.01,2013-09-04 00:28:00,
2013-09-03 20:33:00,69.8,45.1,29.12,WNW,287,0.0,0.0,41,0.00,,BKN,0.00,VWS V13.01,2013-09-04 00:33:00,
2013-09-03 20:38:00,69.6,45.5,29.12,WNW,287,0.0,0.0,42,0.00,,BKN,0.00,VWS V13.01,2013-09-04 00:38:00,
2013-09-03 20:43:00,69.4,45.4,29.12,WNW,287,0.0,0.0,42,0.00,,BKN,0.00,VWS V13.01,2013-09-04 00:43:00,
2013-09-03 20:48:00,69.1,45.0,29.12,WNW,287,0.0,0.0,42,0.00,,BKN,0.00,VWS V13.01,2013-09-04 00:48:00,
2013-09-03 20:53:00,68.9,44.9,29.12,WNW,287,0.0,0.0,42,0.00,,BKN,0.00,VWS V13.01,2013-09-04 00:53:00,
2013-09-03 20:58:00,68.5,45.2,29.12,WNW,287,0.0,0.0,43,0.00,,BKN,0.00,VWS V13.01,2013-09-04 00:58:00,
2013-09-03 21:03:00,68.2,44.9,29.12,WNW,287,0.0,0.0,43,0.00,,BKN,0.00,VWS V13.01,2013-09-04 01:03:00,
2013-09-03 21:08:00,68.2,45.5,29.12,WNW,287,0.0,0.0,44,0.00,,BKN,0.00,VWS V13.01,2013-09-04 01:08:00,
2013-09-03 21:13:00,68.5,45.8,29.12,WNW,287,0.0,0.0,44,0.00,,BKN,0.00,VWS V13.01,2013-09-04 01:13:00,
2013-09-03 21:18:00,68.7,46.0,29.12,WNW,287,0.0,0.0,44,0.00,,BKN,0.00,VWS V13.01,2013-09-04 01:18:00,
2013-09-03 21:23:00,68.5,45.8,29.12,WNW,287,0.0,0.0,44,0.00,,BKN,0.00,VWS V13.01,2013-09-04 01:23:00,
2013-09-03 21:28:00,68.4,45.6,29.15,WNW,287,0.0,0.0,44,0.00,,BKN,0.00,VWS V13.01,2013-09-04 01:28:00,
2013-09-03 21:33:00,67.8,45.1,29.15,WNW,287,0.0,0.0,44,0.00,,BKN,0.00,VWS V13.01,2013-09-04 01:33:00,
2013-09-03 21:38:00,67.5,44.8,29.15,WNW,287,0.0,0.0,44,0.00,,BKN,0.00,VWS V13.01,2013-09-04 01:38:00,
2013-09-03 21:43:00,67.5,45.4,29.15,WNW,294,0.0,0.0,45,0.00,,BKN,0.00,VWS V13.01,2013-09-04 01:43:00,
2013-09-03 21:48:00,67.5,46.0,29.15,NNW,327,4.0,4.0,46,0.00,,BKN,0.00,VWS V13.01,2013-09-04 01:48:00,
2013-09-03 21:53:00,67.5,46.0,29.15,NW,306,4.9,4.9,46,0.00,,BKN,0.00,VWS V13.01,2013-09-04 01:53:00,
2013-09-03 21:58:00,67.1,46.2,29.15,NW,306,0.0,0.0,47,0.00,,BKN,0.00,VWS V13.01,2013-09-04 01:58:00,
2013-09-03 22:02:00,66.7,45.9,29.15,NW,306,0.0,0.0,47,0.00,,BKN,0.00,VWS V13.01,2013-09-04 02:02:00,
2013-09-03 22:07:00,66.4,45.6,29.15,NW,306,0.0,0.0,47,0.00,,BKN,0.00,VWS V13.01,2013-09-04 02:07:00,
2013-09-03 22:12:00,66.2,46.0,29.15,NW,306,3.1,3.1,48,0.00,,BKN,0.00,VWS V13.01,2013-09-04 02:12:00,
2013-09-03 22:17:00,66.4,46.7,29.15,NW,306,4.0,4.0,49,0.00,,BKN,0.00,VWS V13.01,2013-09-04 02:17:00,
2013-09-03 22:22:00,66.6,46.8,29.15,NW,306,2.7,3.1,49,0.00,,BKN,0.00,VWS V13.01,2013-09-04 02:22:00,
2013-09-03 22:27:00,66.7,46.5,29.15,NW,306,3.1,4.0,48,0.00,,BKN,0.00,VWS V13.01,2013-09-04 02:27:00,
2013-09-03 22:32:00,66.7,46.5,29.15,NW,304,0.0,0.0,48,0.00,,BKN,0.00,VWS V13.01,2013-09-04 02:32:00,
2013-09-03 22:37:00,66.7,46.5,29.15,NW,309,2.7,3.6,48,0.00,,BKN,0.00,VWS V13.01,2013-09-04 02:37:00,
2013-09-03 22:42:00,66.6,46.3,29.15,NW,322,4.5,6.3,48,0.00,,BKN,0.00,VWS V13.01,2013-09-04 02:42:00,
2013-09-03 22:47:00,66.4,46.1,29.15,NW,312,2.7,4.9,48,0.00,,BKN,0.00,VWS V13.01,2013-09-04 02:47:00,
2013-09-03 22:52:00,66.2,46.5,29.15,NW,309,4.0,4.9,49,0.00,,BKN,0.00,VWS V13.01,2013-09-04 02:52:00,
2013-09-03 22:57:00,66.0,46.3,29.15,NNW,343,6.3,6.3,49,0.00,,BKN,0.00,VWS V13.01,2013-09-04 02:57:00,
2013-09-03 23:02:00,65.7,46.0,29.15,North,2,3.6,5.8,49,0.00,,BKN,0.00,VWS V13.01,2013-09-04 03:02:00,
2013-09-03 23:07:00,65.5,46.4,29.15,NW,305,4.0,4.0,50,0.00,,BKN,0.00,VWS V13.01,2013-09-04 03:07:00,
2013-09-03 23:12:00,65.3,46.2,29.15,NW,305,2.7,2.7,50,0.00,,BKN,0.00,VWS V13.01,2013-09-04 03:12:00,
2013-09-03 23:17:00,65.3,46.7,29.15,NW,307,0.0,4.0,51,0.00,,BKN,0.00,VWS V13.01,2013-09-04 03:17:00,
2013-09-03 23:22:00,65.3,46.7,29.15,NW,307,0.0,0.0,51,0.00,,BKN,0.00,VWS V13.01,2013-09-04 03:22:00,
2013-09-03 23:27:00,65.1,46.6,29.15,NW,307,0.0,3.6,51,0.00,,BKN,0.00,VWS V13.01,2013-09-04 03:27:00,
2013-09-03 23:32:00,64.9,46.4,29.15,NW,307,0.0,0.0,51,0.00,,BKN,0.00,VWS V13.01,2013-09-04 03:32:00,
2013-09-03 23:37:00,64.8,46.2,29.15,NW,307,0.0,0.0,51,0.00,,BKN,0.00,VWS V13.01,2013-09-04 03:37:00,
2013-09-03 23:42:00,64.6,46.1,29.18,NW,307,0.0,0.0,51,0.00,,BKN,0.00,VWS V13.01,2013-09-04 03:42:00,
2013-09-03 23:47:00,64.2,46.8,29.18,NW,307,0.0,0.0,53,0.00,,BKN,0.00,VWS V13.01,2013-09-04 03:47:00,
2013-09-03 23:52:00,64.2,46.8,29.18,NW,307,0.0,0.0,53,0.00,,BKN,0.00,VWS V13.01,2013-09-04 03:52:00,
2013-09-03 23:57:00,64.0,46.6,29.18,NW,307,0.0,0.0,53,0.00,,BKN,0.00,VWS V13.01,2013-09-04 03:57:00,